createdAt,value
2023-04-16T00:00:39.755Z,6.53
2023-04-16T00:03:07.696Z,7.45
2023-04-16T00:05:35.763Z,7.65
2023-04-16T00:08:03.658Z,7.13
2023-04-16T00:10:31.622Z,7.47
2023-04-16T00:12:59.387Z,7.15
2023-04-16T00:15:27.232Z,7.03
2023-04-16T00:17:55.005Z,7.32
2023-04-16T00:20:22.780Z,7.65
2023-04-16T00:22:51.492Z,6.80
2023-04-16T00:25:19.222Z,6.57
2023-04-16T00:27:46.997Z,6.43
2023-04-16T00:30:15.101Z,5.80
2023-04-16T00:32:43.830Z,6.15
2023-04-16T00:35:11.685Z,6.22
2023-04-16T00:37:39.594Z,5.50
2023-04-16T00:40:08.082Z,5.38
2023-04-16T00:42:37.193Z,5.78
2023-04-16T00:45:06.009Z,5.45
2023-04-16T00:47:34.279Z,6.95
2023-04-16T00:50:04.470Z,5.93
2023-04-16T00:52:33.389Z,6.20
2023-04-16T00:55:01.559Z,7.00
2023-04-16T00:57:30.956Z,6.97
2023-04-16T00:59:59.208Z,7.43
2023-04-16T01:02:27.456Z,7.82
2023-04-16T01:04:55.889Z,7.68
2023-04-16T01:07:23.678Z,7.60
2023-04-16T01:09:51.445Z,7.55
2023-04-16T01:12:20.294Z,7.57
2023-04-16T01:14:48.094Z,7.18
2023-04-16T01:17:16.104Z,8.43
2023-04-16T01:19:43.831Z,7.85
2023-04-16T01:22:14.565Z,7.65
2023-04-16T01:24:42.430Z,7.75
2023-04-16T01:27:11.685Z,9.40
2023-04-16T01:29:39.399Z,7.22
2023-04-16T01:32:07.414Z,8.15
2023-04-16T01:34:37.690Z,8.00
2023-04-16T01:37:05.605Z,7.65
2023-04-16T01:39:33.322Z,7.63
2023-04-16T01:42:01.529Z,6.18
2023-04-16T01:44:30.991Z,5.95
2023-04-16T01:46:58.940Z,6.57
2023-04-16T01:49:26.807Z,5.22
2023-04-16T01:51:54.488Z,4.75
2023-04-16T01:54:22.227Z,5.03
2023-04-16T01:56:50.052Z,6.03
2023-04-16T01:59:21.371Z,5.80
2023-04-16T02:01:51.962Z,5.28
2023-04-16T02:04:19.781Z,5.93
2023-04-16T02:06:47.531Z,6.18
2023-04-16T02:09:15.740Z,5.70
2023-04-16T02:11:43.995Z,7.03
2023-04-16T02:14:11.826Z,6.78
2023-04-16T02:16:39.625Z,5.70
2023-04-16T02:19:16.976Z,6.28
2023-04-16T02:21:44.813Z,5.90
2023-04-16T02:24:12.593Z,6.32
2023-04-16T02:26:42.894Z,6.35
2023-04-16T02:29:16.645Z,5.13
2023-04-16T02:31:50.640Z,6.22
2023-04-16T02:34:19.351Z,6.53
2023-04-16T02:36:47.060Z,5.22
2023-04-16T02:39:14.766Z,5.25
2023-04-16T02:41:42.540Z,5.15
2023-04-16T02:44:10.384Z,5.35
2023-04-16T02:46:38.023Z,5.63
2023-04-16T02:49:05.819Z,6.20
2023-04-16T02:51:33.585Z,5.05
2023-04-16T02:54:01.311Z,5.70
2023-04-16T02:56:29.377Z,5.90
2023-04-16T02:58:57.106Z,6.20
2023-04-16T03:01:25.261Z,5.53
2023-04-16T03:03:53.214Z,6.05
2023-04-16T03:06:21.222Z,6.03
2023-04-16T03:08:49.005Z,6.43
2023-04-16T03:11:17.098Z,7.25
2023-04-16T03:13:47.952Z,6.60
2023-04-16T03:16:15.780Z,6.45
2023-04-16T03:18:43.686Z,7.40
2023-04-16T03:21:14.286Z,6.15
2023-04-16T03:23:42.253Z,5.97
2023-04-16T03:26:09.962Z,7.80
2023-04-16T03:28:37.699Z,8.57
2023-04-16T03:31:35.684Z,7.78
2023-04-16T03:34:03.596Z,9.07
2023-04-16T03:36:48.537Z,9.32
2023-04-16T03:39:16.535Z,8.65
2023-04-16T03:41:44.270Z,9.60
2023-04-16T03:44:12.183Z,9.15
2023-04-16T03:46:40.153Z,7.88
2023-04-16T03:49:08.896Z,7.53
2023-04-16T03:51:36.804Z,7.60
2023-04-16T03:54:04.963Z,7.65
2023-04-16T03:56:33.558Z,7.57
2023-04-16T03:59:01.748Z,6.30
2023-04-16T04:01:30.695Z,6.68
2023-04-16T04:03:59.028Z,6.78
2023-04-16T04:06:27.592Z,6.22
2023-04-16T04:08:55.472Z,6.07
2023-04-16T04:11:23.247Z,6.22
2023-04-16T04:13:51.395Z,5.68
2023-04-16T04:16:22.262Z,5.05
2023-04-16T04:18:50.294Z,7.55
2023-04-16T04:21:22.292Z,5.78
2023-04-16T04:23:53.914Z,5.07
2023-04-16T04:26:22.299Z,6.53
2023-04-16T04:28:50.103Z,6.10
2023-04-16T04:31:19.145Z,6.78
2023-04-16T04:33:48.024Z,4.82
2023-04-16T04:36:18.545Z,5.07
2023-04-16T04:38:49.193Z,5.30
2023-04-16T04:41:17.273Z,5.47
2023-04-16T04:43:47.709Z,5.15
2023-04-16T04:46:15.921Z,5.72
2023-04-16T04:48:43.686Z,4.30
2023-04-16T04:51:11.786Z,4.50
2023-04-16T04:53:39.583Z,4.72
2023-04-16T04:56:12.122Z,4.05
2023-04-16T04:58:44.359Z,4.60
2023-04-16T05:01:12.990Z,4.32
2023-04-16T05:03:40.941Z,3.88
2023-04-16T05:06:08.873Z,4.53
2023-04-16T05:08:36.717Z,3.40
2023-04-16T05:11:04.669Z,4.63
2023-04-16T05:13:32.487Z,4.38
2023-04-16T05:16:00.445Z,3.70
2023-04-16T05:18:28.299Z,3.53
2023-04-16T05:20:56.244Z,3.35
2023-04-16T05:23:24.021Z,3.65
2023-04-16T05:25:51.901Z,3.33
2023-04-16T05:28:19.815Z,3.45
2023-04-16T05:30:47.662Z,3.20
2023-04-16T05:33:15.543Z,2.85
2023-04-16T05:35:43.312Z,3.33
2023-04-16T05:38:13.059Z,3.50
2023-04-16T05:40:40.796Z,3.60
2023-04-16T05:43:08.533Z,3.08
2023-04-16T05:45:41.125Z,3.30
2023-04-16T05:48:09.523Z,3.05
2023-04-16T05:50:37.780Z,3.58
2023-04-16T05:53:09.504Z,3.70
2023-04-16T05:55:37.376Z,3.55
2023-04-16T05:58:07.166Z,3.50
2023-04-16T06:00:35.136Z,4.15
2023-04-16T06:03:03.868Z,3.15
2023-04-16T06:05:31.965Z,3.10
2023-04-16T06:07:59.777Z,3.13
2023-04-16T06:10:28.252Z,2.75
2023-04-16T06:12:56.385Z,2.80
2023-04-16T06:15:27.140Z,3.17
2023-04-16T06:18:00.681Z,3.50
2023-04-16T06:20:28.851Z,4.18
2023-04-16T06:22:59.539Z,3.10
2023-04-16T06:25:27.311Z,3.15
2023-04-16T06:27:55.155Z,2.85
2023-04-16T06:30:22.866Z,2.67
2023-04-16T06:32:50.772Z,2.42
2023-04-16T06:35:20.370Z,2.75
2023-04-16T06:37:48.297Z,2.47
2023-04-16T06:40:16.129Z,2.78
2023-04-16T06:42:46.546Z,2.58
2023-04-16T06:45:14.378Z,2.42
2023-04-16T06:47:42.221Z,2.30
2023-04-16T06:50:10.463Z,2.28
2023-04-16T06:52:40.747Z,2.47
2023-04-16T06:55:09.928Z,2.33
2023-04-16T06:57:37.919Z,3.08
2023-04-16T07:00:06.350Z,2.47
2023-04-16T07:02:34.387Z,2.35
2023-04-16T07:05:02.278Z,3.15
2023-04-16T07:07:31.497Z,2.67
2023-04-16T07:09:59.965Z,2.13
2023-04-16T07:12:27.778Z,2.00
2023-04-16T07:14:55.946Z,2.50
2023-04-16T07:17:23.724Z,2.05
2023-04-16T07:19:52.148Z,2.15
2023-04-16T07:22:20.484Z,2.47
2023-04-16T07:24:48.219Z,2.40
2023-04-16T07:27:16.955Z,1.63
2023-04-16T07:29:46.070Z,1.58
2023-04-16T07:32:15.477Z,1.60
2023-04-16T07:34:43.729Z,1.88
2023-04-16T07:37:11.516Z,1.80
2023-04-16T07:39:39.396Z,1.73
2023-04-16T07:42:07.263Z,2.15
2023-04-16T07:44:35.009Z,1.80
2023-04-16T07:47:04.842Z,1.80
2023-04-16T07:49:54.758Z,2.10
2023-04-16T07:52:22.562Z,2.00
2023-04-16T07:54:51.774Z,2.38
2023-04-16T07:57:19.862Z,2.00
2023-04-16T07:59:47.594Z,2.75
2023-04-16T08:02:16.715Z,2.10
2023-04-16T08:04:45.089Z,2.00
2023-04-16T08:07:13.148Z,1.70
2023-04-16T08:09:51.745Z,2.25
2023-04-16T08:12:21.025Z,2.70
2023-04-16T08:14:49.098Z,2.50
2023-04-16T08:17:16.841Z,2.47
2023-04-16T08:19:45.429Z,2.00
2023-04-16T08:22:13.758Z,2.40
2023-04-16T08:24:41.858Z,2.25
2023-04-16T08:27:19.380Z,1.65
2023-04-16T08:29:48.536Z,2.13
2023-04-16T08:32:16.418Z,1.95
2023-04-16T08:34:44.327Z,2.55
2023-04-16T08:37:12.093Z,4.43
2023-04-16T08:39:40.025Z,2.20
2023-04-16T08:42:13.684Z,2.40
2023-04-16T08:44:44.630Z,2.00
2023-04-16T08:47:12.947Z,2.40
2023-04-16T08:49:45.262Z,2.65
2023-04-16T08:52:19.952Z,2.25
2023-04-16T08:54:58.475Z,2.30
2023-04-16T08:57:31.692Z,2.10
2023-04-16T08:59:59.784Z,2.45
2023-04-16T09:02:28.192Z,2.08
2023-04-16T09:04:56.811Z,2.30
2023-04-16T09:07:24.801Z,2.45
2023-04-16T09:09:53.628Z,2.30
2023-04-16T09:12:24.186Z,2.33
2023-04-16T09:14:51.998Z,1.90
2023-04-16T09:17:19.885Z,2.20
2023-04-16T09:19:47.935Z,1.60
2023-04-16T09:22:17.290Z,1.98
2023-04-16T09:24:45.045Z,2.05
2023-04-16T09:27:13.304Z,2.08
2023-04-16T09:29:41.800Z,2.10
2023-04-16T09:32:11.737Z,1.85
2023-04-16T09:34:55.743Z,1.98
2023-04-16T09:37:24.064Z,2.60
2023-04-16T09:39:57.661Z,1.85
2023-04-16T09:42:27.544Z,2.25
2023-04-16T09:44:58.658Z,2.28
2023-04-16T09:47:40.200Z,2.58
2023-04-16T09:50:11.260Z,2.05
2023-04-16T09:52:40.484Z,1.95
2023-04-16T09:55:10.859Z,1.75
2023-04-16T09:57:44.737Z,1.70
2023-04-16T10:00:13.154Z,1.73
2023-04-16T10:02:42.637Z,2.00
2023-04-16T10:05:16.874Z,2.88
2023-04-16T10:07:44.999Z,2.10
2023-04-16T10:10:12.775Z,1.67
2023-04-16T10:12:40.789Z,2.08
2023-04-16T10:15:08.894Z,2.15
2023-04-16T10:17:37.316Z,1.60
2023-04-16T10:20:09.385Z,1.70
2023-04-16T10:22:39.727Z,1.60
2023-04-16T10:25:08.634Z,2.10
2023-04-16T10:27:37.415Z,2.00
2023-04-16T10:30:07.236Z,2.25
2023-04-16T10:32:35.771Z,1.88
2023-04-16T10:35:03.935Z,1.70
2023-04-16T10:37:35.512Z,1.92
2023-04-16T10:40:25.313Z,1.70
2023-04-16T10:42:57.949Z,1.73
2023-04-16T10:45:35.209Z,2.47
2023-04-16T10:48:10.133Z,2.00
2023-04-16T10:50:38.461Z,2.30
2023-04-16T10:53:27.317Z,1.30
2023-04-16T10:56:08.566Z,1.92
2023-04-16T10:58:47.997Z,2.22
2023-04-16T11:01:16.941Z,1.77
2023-04-16T11:03:47.542Z,1.75
2023-04-16T11:06:26.805Z,2.00
2023-04-16T11:09:06.304Z,2.75
2023-04-16T11:11:39.697Z,1.90
2023-04-16T11:14:08.416Z,2.10
2023-04-16T11:16:36.310Z,1.75
2023-04-16T11:19:04.115Z,1.88
2023-04-16T11:21:32.699Z,1.90
2023-04-16T11:24:00.471Z,1.80
2023-04-16T11:26:30.814Z,1.75
2023-04-16T11:29:00.345Z,1.92
2023-04-16T11:31:28.302Z,2.10
2023-04-16T11:33:56.972Z,1.75
2023-04-16T11:36:26.956Z,2.03
2023-04-16T11:39:02.200Z,2.05
2023-04-16T11:41:30.041Z,1.75
2023-04-16T11:43:58.005Z,1.88
2023-04-16T11:46:38.881Z,1.95
2023-04-16T11:49:06.754Z,1.70
2023-04-16T11:51:42.799Z,1.80
2023-04-16T11:54:12.190Z,1.70
2023-04-16T11:56:46.977Z,1.90
2023-04-16T11:59:17.643Z,1.70
2023-04-16T12:01:55.829Z,2.00
2023-04-16T12:04:26.361Z,2.20
2023-04-16T12:07:14.322Z,2.47
2023-04-16T12:09:44.294Z,2.28
2023-04-16T12:12:26.615Z,1.75
2023-04-16T12:14:56.889Z,2.28
2023-04-16T12:17:24.963Z,2.17
2023-04-16T12:20:00.877Z,2.03
2023-04-16T12:22:28.646Z,1.92
2023-04-16T12:24:59.906Z,2.10
2023-04-16T12:27:53.366Z,1.63
2023-04-16T12:30:23.194Z,1.80
2023-04-16T12:32:52.743Z,1.58
2023-04-16T12:35:33.944Z,1.90
2023-04-16T12:38:01.747Z,2.40
2023-04-16T12:40:29.526Z,2.10
2023-04-16T12:42:57.685Z,1.90
2023-04-16T12:45:25.765Z,1.67
2023-04-16T12:47:53.644Z,1.90
2023-04-16T12:50:21.833Z,1.83
2023-04-16T12:52:49.655Z,1.90
2023-04-16T12:55:20.838Z,1.85
2023-04-16T12:57:49.503Z,1.80
2023-04-16T13:00:22.661Z,2.63
2023-04-16T13:05:19.440Z,2.17
2023-04-16T13:07:47.407Z,2.25
2023-04-16T13:10:15.257Z,2.40
2023-04-16T13:12:45.473Z,2.20
2023-04-16T13:15:13.274Z,2.25
2023-04-16T13:17:41.164Z,2.38
2023-04-16T13:20:09.546Z,1.92
2023-04-16T13:22:41.469Z,1.70
2023-04-16T13:25:09.991Z,1.60
2023-04-16T13:27:40.483Z,2.38
2023-04-16T20:37:48.551Z,11.38
2023-04-16T20:40:16.556Z,10.20
2023-04-16T20:42:46.920Z,10.73
2023-04-16T20:45:14.724Z,10.20
2023-04-16T20:47:43.560Z,11.00
2023-04-16T20:50:12.219Z,9.38
2023-04-16T20:52:40.026Z,8.73
2023-04-16T20:55:08.694Z,8.13
2023-04-16T20:57:42.174Z,8.65
2023-04-16T21:00:11.674Z,8.85
2023-04-16T21:02:39.706Z,10.13
2023-04-16T21:05:16.715Z,8.75
2023-04-16T21:07:44.498Z,8.15
2023-04-16T21:10:12.251Z,9.07
2023-04-16T21:12:39.991Z,9.10
2023-04-16T21:15:08.112Z,8.95
2023-04-16T21:17:38.708Z,8.90
2023-04-16T21:20:10.756Z,9.15
2023-04-16T21:22:38.490Z,8.82
2023-04-16T21:25:07.005Z,9.13
2023-04-16T21:27:34.643Z,9.05
2023-04-16T21:30:02.466Z,8.68
2023-04-16T21:32:31.540Z,9.05
2023-04-16T21:34:59.683Z,9.98
2023-04-16T21:37:27.401Z,8.43
2023-04-16T21:39:55.101Z,9.85
2023-04-16T21:42:22.787Z,9.35
2023-04-16T21:44:50.574Z,9.27
2023-04-16T21:47:18.712Z,10.95
2023-04-16T21:49:46.574Z,10.55
2023-04-16T21:52:14.279Z,10.40
2023-04-16T21:54:42.108Z,11.07
2023-04-16T21:57:10.108Z,9.80
2023-04-16T21:59:38.521Z,10.95
2023-04-16T22:02:06.582Z,11.10
2023-04-16T22:04:40.268Z,11.57
2023-04-16T22:07:11.847Z,10.48
2023-04-16T22:09:40.886Z,10.70
2023-04-16T22:12:11.510Z,10.90
2023-04-16T22:14:46.227Z,11.95
2023-04-16T22:17:17.273Z,11.93
2023-04-16T22:19:45.243Z,12.10
2023-04-16T22:22:13.562Z,12.50
2023-04-16T22:24:41.339Z,12.15
2023-04-16T22:27:09.157Z,11.57
2023-04-16T22:29:38.122Z,11.52
2023-04-16T22:32:06.187Z,12.32
2023-04-16T22:34:34.204Z,11.25
2023-04-16T22:37:03.192Z,10.73
2023-04-16T22:39:31.772Z,11.35
2023-04-16T22:41:59.683Z,12.15
2023-04-16T22:44:27.438Z,11.00
2023-04-16T22:46:55.254Z,11.90
2023-04-16T22:49:23.068Z,11.73
2023-04-16T22:51:50.880Z,11.20
2023-04-16T22:54:18.596Z,13.55
2023-04-16T22:56:46.975Z,11.45
2023-04-16T22:59:14.726Z,12.00
2023-04-16T23:01:42.941Z,11.90
2023-04-16T23:04:11.165Z,11.52
2023-04-16T23:06:40.650Z,10.82
2023-04-16T23:09:09.009Z,12.50
2023-04-16T23:11:36.945Z,12.40
2023-04-16T23:14:05.147Z,12.82
2023-04-16T23:16:32.900Z,12.65
2023-04-16T23:19:00.575Z,12.82
2023-04-16T23:21:28.255Z,12.90
2023-04-16T23:23:57.241Z,13.48
2023-04-16T23:26:25.016Z,14.77
2023-04-16T23:28:52.812Z,13.75
2023-04-16T23:31:20.740Z,14.43
2023-04-16T23:33:48.488Z,13.90
2023-04-16T23:36:16.551Z,13.73
2023-04-16T23:38:44.246Z,13.80
2023-04-16T23:41:12.082Z,13.70
2023-04-16T23:43:40.848Z,13.63
2023-04-16T23:46:08.688Z,14.18
2023-04-16T23:48:36.589Z,14.40
2023-04-16T23:51:04.563Z,13.65
2023-04-16T23:53:32.348Z,13.70
2023-04-16T23:56:00.322Z,14.00
2023-04-16T23:58:28.143Z,14.20
